createdAt,value
2023-04-18T00:00:12.153Z,8.16
2023-04-18T00:03:02.366Z,8.18
2023-04-18T00:05:30.955Z,8.17
2023-04-18T00:07:58.086Z,8.18
2023-04-18T00:10:25.307Z,8.20
2023-04-18T00:12:52.444Z,8.20
2023-04-18T00:15:19.292Z,8.19
2023-04-18T00:17:48.240Z,8.19
2023-04-18T00:20:15.244Z,8.18
2023-04-18T00:22:46.765Z,8.17
2023-04-18T00:25:13.740Z,8.17
2023-04-18T00:27:41.377Z,8.15
2023-04-18T00:30:09.174Z,8.15
2023-04-18T00:32:36.472Z,8.14
2023-04-18T00:35:04.211Z,8.16
2023-04-18T00:37:31.519Z,8.14
2023-04-18T00:39:58.330Z,8.14
2023-04-18T00:42:27.867Z,8.12
2023-04-18T00:44:54.913Z,8.06
2023-04-18T00:47:22.154Z,8.08
2023-04-18T00:49:49.434Z,8.11
2023-04-18T00:52:18.540Z,8.12
2023-04-18T00:54:45.547Z,8.13
2023-04-18T00:57:13.232Z,8.17
2023-04-18T00:59:40.725Z,8.16
2023-04-18T01:02:08.054Z,8.19
2023-04-18T01:04:35.399Z,8.22
2023-04-18T01:07:03.448Z,8.23
2023-04-18T01:09:30.733Z,8.26
2023-04-18T01:11:57.882Z,8.27
2023-04-18T01:14:24.787Z,8.30
2023-04-18T01:16:51.974Z,8.27
2023-04-18T01:19:18.853Z,8.24
2023-04-18T01:21:46.058Z,8.22
2023-04-18T01:24:17.699Z,8.23
2023-04-18T01:26:49.503Z,8.27
2023-04-18T01:29:16.510Z,8.28
2023-04-18T01:31:43.759Z,8.29
2023-04-18T01:34:10.826Z,8.32
2023-04-18T01:36:39.642Z,8.34
2023-04-18T01:39:07.198Z,8.33
2023-04-18T01:41:34.356Z,8.35
2023-04-18T01:44:01.750Z,8.35
2023-04-18T01:46:29.089Z,8.35
2023-04-18T01:48:56.673Z,8.36
2023-04-18T01:51:23.866Z,8.36
2023-04-18T01:53:51.122Z,8.37
2023-04-18T01:56:18.286Z,8.38
2023-04-18T01:58:45.208Z,8.38
2023-04-18T02:01:12.569Z,8.39
2023-04-18T02:03:40.031Z,8.38
2023-04-18T02:06:07.781Z,8.37
2023-04-18T02:08:36.044Z,8.37
2023-04-18T02:11:03.870Z,8.34
2023-04-18T02:13:31.210Z,8.30
2023-04-18T02:15:58.505Z,8.26
2023-04-18T02:18:26.752Z,8.21
2023-04-18T02:20:54.045Z,8.18
2023-04-18T02:23:20.905Z,8.11
2023-04-18T02:25:48.016Z,8.08
2023-04-18T02:28:14.862Z,8.04
2023-04-18T02:30:42.030Z,8.01
2023-04-18T02:33:08.944Z,7.99
2023-04-18T02:35:38.057Z,7.96
2023-04-18T02:38:04.928Z,7.94
2023-04-18T02:40:32.070Z,7.91
2023-04-18T02:42:58.999Z,7.87
2023-04-18T02:45:26.246Z,7.85
2023-04-18T02:47:56.066Z,7.80
2023-04-18T02:50:25.122Z,7.76
2023-04-18T02:52:52.125Z,7.73
2023-04-18T02:55:19.366Z,7.69
2023-04-18T02:57:46.392Z,7.66
2023-04-18T03:00:14.225Z,7.63
2023-04-18T03:02:41.189Z,7.61
2023-04-18T03:05:08.668Z,7.58
2023-04-18T03:07:35.840Z,7.56
2023-04-18T03:10:03.093Z,7.56
2023-04-18T03:12:29.923Z,7.54
2023-04-18T03:14:57.165Z,7.52
2023-04-18T03:17:24.133Z,7.47
2023-04-18T03:19:51.294Z,7.43
2023-04-18T03:22:18.109Z,7.40
2023-04-18T03:24:45.281Z,7.38
2023-04-18T03:27:13.033Z,7.35
2023-04-18T03:29:40.281Z,7.34
2023-04-18T03:32:07.126Z,7.31
2023-04-18T03:34:34.204Z,7.26
2023-04-18T03:37:01.263Z,7.22
2023-04-18T03:39:28.395Z,7.18
2023-04-18T03:41:55.335Z,7.16
2023-04-18T03:44:22.466Z,7.14
2023-04-18T03:46:49.473Z,7.13
2023-04-18T03:49:16.666Z,7.12
2023-04-18T03:51:49.084Z,7.11
2023-04-18T03:54:17.267Z,7.12
2023-04-18T03:56:45.204Z,7.13
2023-04-18T03:59:12.580Z,7.14
2023-04-18T04:01:39.491Z,7.14
2023-04-18T04:04:06.969Z,7.17
2023-04-18T04:06:33.965Z,7.19
2023-04-18T04:09:01.333Z,7.23
2023-04-18T04:11:28.323Z,7.24
2023-04-18T04:13:55.525Z,7.26
2023-04-18T04:16:22.480Z,7.28
2023-04-18T04:18:49.718Z,7.29
2023-04-18T04:21:17.306Z,7.31
2023-04-18T04:23:46.365Z,7.34
2023-04-18T04:26:15.141Z,7.36
2023-04-18T04:28:46.421Z,7.38
2023-04-18T04:31:13.416Z,7.39
2023-04-18T04:33:41.129Z,7.40
2023-04-18T04:36:09.068Z,7.42
2023-04-18T04:38:38.588Z,7.44
2023-04-18T04:41:09.289Z,7.48
2023-04-18T04:43:36.680Z,7.49
2023-04-18T04:46:04.611Z,7.52
2023-04-18T04:48:31.877Z,7.53
2023-04-18T04:51:00.664Z,7.57
2023-04-18T04:53:32.752Z,7.59
2023-04-18T04:55:59.672Z,7.59
2023-04-18T04:58:27.168Z,7.60
2023-04-18T05:00:55.010Z,7.59
2023-04-18T05:03:22.583Z,7.59
2023-04-18T05:05:49.560Z,7.62
2023-04-18T05:08:16.656Z,7.65
2023-04-18T05:10:43.580Z,7.65
2023-04-18T05:13:10.759Z,7.65
2023-04-18T05:15:39.604Z,7.65
2023-04-18T05:18:06.835Z,7.68
2023-04-18T05:20:33.715Z,7.75
2023-04-18T05:23:01.107Z,7.80
2023-04-18T05:25:29.773Z,7.84
2023-04-18T05:27:57.345Z,7.86
2023-04-18T05:30:24.252Z,7.92
2023-04-18T05:32:51.505Z,7.96
2023-04-18T05:35:18.520Z,8.04
2023-04-18T05:37:45.782Z,8.11
2023-04-18T05:40:13.329Z,8.07
2023-04-18T05:42:40.525Z,8.07
2023-04-18T05:45:08.016Z,8.10
2023-04-18T05:47:35.160Z,8.15
2023-04-18T05:50:02.124Z,8.25
2023-04-18T05:52:29.295Z,8.32
2023-04-18T05:54:56.160Z,8.31
2023-04-18T05:57:23.322Z,8.38
2023-04-18T05:59:50.166Z,8.45
2023-04-18T06:02:17.414Z,8.52
2023-04-18T06:04:45.293Z,8.67
2023-04-18T06:07:12.819Z,8.78
2023-04-18T06:09:39.929Z,8.90
2023-04-18T06:12:07.207Z,9.03
2023-04-18T06:14:34.082Z,9.19
2023-04-18T06:17:01.317Z,9.42
2023-04-18T06:19:28.222Z,9.70
2023-04-18T06:21:55.442Z,9.84
2023-04-18T06:24:23.160Z,10.13
2023-04-18T06:26:50.375Z,10.49
2023-04-18T06:29:18.301Z,10.54
2023-04-18T06:31:46.814Z,10.71
2023-04-18T06:34:14.355Z,10.95
2023-04-18T06:36:41.720Z,11.15
2023-04-18T06:39:08.984Z,11.35
2023-04-18T06:41:36.080Z,11.65
2023-04-18T06:44:04.623Z,11.96
2023-04-18T06:46:32.799Z,12.30
2023-04-18T06:48:59.848Z,12.59
2023-04-18T06:51:27.619Z,12.69
2023-04-18T06:53:54.607Z,12.80
2023-04-18T06:56:21.878Z,12.60
2023-04-18T06:58:49.761Z,12.58
2023-04-18T07:01:17.025Z,12.71
2023-04-18T07:03:44.159Z,12.81
2023-04-18T07:06:11.389Z,13.18
2023-04-18T07:08:38.409Z,13.58
2023-04-18T07:11:06.782Z,14.19
2023-04-18T07:13:33.713Z,14.72
2023-04-18T07:16:01.687Z,15.26
2023-04-18T07:18:37.150Z,15.74
2023-04-18T07:21:07.850Z,15.96
2023-04-18T07:23:35.817Z,16.02
2023-04-18T07:26:03.692Z,16.28
2023-04-18T07:28:31.946Z,16.31
2023-04-18T07:30:59.388Z,15.93
2023-04-18T07:33:26.369Z,15.35
2023-04-18T07:35:53.545Z,15.03
2023-04-18T07:38:20.703Z,14.63
2023-04-18T07:40:57.178Z,14.20
2023-04-18T07:43:24.280Z,14.14
2023-04-18T07:45:52.202Z,14.39
2023-04-18T07:48:22.212Z,14.56
2023-04-18T07:50:49.691Z,14.94
2023-04-18T07:53:16.920Z,15.25
2023-04-18T07:55:44.773Z,15.46
2023-04-18T07:58:11.668Z,15.74
2023-04-18T08:00:39.372Z,15.70
2023-04-18T08:03:07.805Z,15.69
2023-04-18T08:05:35.138Z,15.76
2023-04-18T08:08:02.349Z,15.35
2023-04-18T08:10:29.643Z,15.02
2023-04-18T08:12:56.510Z,14.73
2023-04-18T08:15:23.735Z,14.59
2023-04-18T08:17:51.524Z,14.59
2023-04-18T08:20:18.732Z,14.66
2023-04-18T08:23:02.257Z,14.73
2023-04-18T08:25:33.316Z,14.75
2023-04-18T08:28:00.699Z,14.73
2023-04-18T08:30:28.178Z,14.62
2023-04-18T08:32:55.158Z,14.57
2023-04-18T08:35:22.582Z,14.68
2023-04-18T08:37:49.402Z,14.79
2023-04-18T08:40:16.938Z,14.81
2023-04-18T08:42:47.092Z,14.83
2023-04-18T08:45:14.734Z,14.72
2023-04-18T08:47:42.404Z,14.68
2023-04-18T08:50:10.674Z,14.58
2023-04-18T08:52:39.745Z,14.58
2023-04-18T08:55:07.450Z,14.54
2023-04-18T08:57:36.006Z,14.79
2023-04-18T09:00:10.333Z,14.93
2023-04-18T09:02:46.992Z,14.83
2023-04-18T09:05:16.643Z,14.64
2023-04-18T09:07:43.565Z,14.56
2023-04-18T09:10:12.685Z,14.47
2023-04-18T09:12:50.209Z,14.39
2023-04-18T09:15:23.329Z,14.46
2023-04-18T09:17:56.264Z,14.63
2023-04-18T09:20:35.802Z,14.89
2023-04-18T09:23:04.007Z,15.11
2023-04-18T09:25:36.140Z,15.41
2023-04-18T09:28:05.057Z,15.70
2023-04-18T09:30:40.676Z,16.08
2023-04-18T09:33:12.746Z,16.45
2023-04-18T09:35:39.996Z,16.90
2023-04-18T09:38:07.912Z,17.18
2023-04-18T09:40:35.762Z,17.44
2023-04-18T09:43:19.199Z,17.61
2023-04-18T09:45:50.191Z,17.61
2023-04-18T09:48:17.175Z,17.64
2023-04-18T09:50:46.371Z,17.90
2023-04-18T09:53:15.569Z,18.26
2023-04-18T09:55:43.017Z,18.56
2023-04-18T09:58:11.058Z,18.43
2023-04-18T10:00:39.900Z,18.45
2023-04-18T10:03:08.852Z,18.65
2023-04-18T10:05:39.178Z,19.03
2023-04-18T10:08:06.999Z,19.54
2023-04-18T10:10:34.267Z,20.02
2023-04-18T10:13:03.017Z,20.44
2023-04-18T10:15:32.099Z,20.85
2023-04-18T10:18:07.100Z,21.05
2023-04-18T10:20:35.404Z,20.61
2023-04-18T10:23:36.343Z,20.34
2023-04-18T10:26:08.168Z,19.96
2023-04-18T10:28:56.476Z,19.40
2023-04-18T10:31:25.789Z,19.05
2023-04-18T10:36:28.732Z,18.60
2023-04-18T10:39:00.628Z,18.74
2023-04-18T10:41:32.334Z,18.89
2023-04-18T10:44:08.846Z,19.34
2023-04-18T10:46:38.222Z,19.97
2023-04-18T10:49:20.205Z,20.53
2023-04-18T10:51:49.699Z,20.63
2023-04-18T10:54:46.509Z,20.60
2023-04-18T10:57:13.975Z,20.84
2023-04-18T10:59:48.343Z,20.87
2023-04-18T11:02:24.784Z,20.78
2023-04-18T11:04:56.998Z,20.81
2023-04-18T11:07:48.910Z,21.05
2023-04-18T11:10:24.613Z,21.28
2023-04-18T11:12:52.767Z,21.45
2023-04-18T11:15:22.231Z,21.50
2023-04-18T11:18:01.387Z,21.66
2023-04-18T11:20:30.124Z,21.66
2023-04-18T11:22:58.884Z,21.49
2023-04-18T11:25:28.941Z,21.24
2023-04-18T11:28:00.206Z,21.23
2023-04-18T11:30:28.450Z,21.12
2023-04-18T11:32:56.055Z,21.06
2023-04-18T11:35:23.090Z,20.86
2023-04-18T11:37:51.300Z,20.96
2023-04-18T11:40:18.373Z,20.92
2023-04-18T11:42:45.663Z,20.35
2023-04-18T11:45:14.542Z,20.13
2023-04-18T11:47:43.268Z,20.10
2023-04-18T11:50:12.424Z,20.46
2023-04-18T11:52:41.701Z,20.62
2023-04-18T11:55:25.517Z,20.64
2023-04-18T11:57:56.876Z,20.76
2023-04-18T12:00:38.748Z,21.02
2023-04-18T12:03:16.306Z,21.21
2023-04-18T12:05:43.771Z,21.27
2023-04-18T12:08:11.911Z,21.25
2023-04-18T12:10:51.871Z,20.99
2023-04-18T12:13:24.085Z,20.65
2023-04-18T12:15:51.100Z,20.49
2023-04-18T12:18:19.927Z,20.49
2023-04-18T12:20:51.686Z,20.68
2023-04-18T12:23:32.343Z,21.13
2023-04-18T12:26:13.044Z,21.74
2023-04-18T12:28:44.422Z,22.11
2023-04-18T12:31:11.532Z,21.96
2023-04-18T12:33:38.668Z,21.92
2023-04-18T12:36:06.221Z,21.97
2023-04-18T12:38:33.388Z,21.91
2023-04-18T12:41:00.369Z,21.94
2023-04-18T12:43:27.580Z,21.98
2023-04-18T12:45:54.512Z,22.01
2023-04-18T12:48:21.661Z,22.05
2023-04-18T12:50:48.518Z,22.11
2023-04-18T12:53:15.758Z,22.19
2023-04-18T12:55:42.669Z,22.20
2023-04-18T12:58:09.874Z,22.30
2023-04-18T13:00:37.271Z,21.90
2023-04-18T13:03:04.980Z,20.75
2023-04-18T13:05:34.015Z,20.01
2023-04-18T13:10:32.157Z,20.01
2023-04-18T13:12:59.295Z,20.20
2023-04-18T13:15:27.726Z,20.25
2023-04-18T13:17:58.453Z,20.38
2023-04-18T13:20:25.587Z,20.38
2023-04-18T13:22:52.780Z,20.25
2023-04-18T13:25:19.730Z,20.12
2023-04-18T13:27:46.955Z,19.80
2023-04-18T13:30:14.009Z,19.44
2023-04-18T13:32:41.624Z,19.14
2023-04-18T13:35:10.949Z,18.69
2023-04-18T13:37:38.757Z,18.46
2023-04-18T13:40:06.991Z,18.33
2023-04-18T13:42:35.927Z,18.17
2023-04-18T13:45:03.381Z,18.09
2023-04-18T13:47:30.638Z,18.08
2023-04-18T13:49:57.989Z,18.02
2023-04-18T13:52:25.932Z,17.99
2023-04-18T13:54:53.135Z,17.98
2023-04-18T13:57:21.049Z,18.03
2023-04-18T13:59:47.981Z,18.09
2023-04-18T14:02:15.361Z,18.11
2023-04-18T14:04:42.613Z,18.10
2023-04-18T14:07:09.974Z,18.07
2023-04-18T14:09:36.857Z,18.06
2023-04-18T14:12:04.341Z,18.03
2023-04-18T14:14:31.252Z,18.04
2023-04-18T14:16:58.407Z,18.10
2023-04-18T14:19:25.378Z,18.19
2023-04-18T14:21:52.527Z,18.24
2023-04-18T14:24:19.458Z,18.28
2023-04-18T14:26:46.632Z,18.26
2023-04-18T14:29:14.455Z,18.23
2023-04-18T14:31:42.011Z,18.10
2023-04-18T14:34:09.841Z,18.00
2023-04-18T14:36:37.103Z,17.98
2023-04-18T14:39:04.841Z,17.80
2023-04-18T14:41:32.067Z,17.58
2023-04-18T14:43:59.535Z,17.37
2023-04-18T14:46:28.281Z,17.21
2023-04-18T14:48:55.318Z,17.13
2023-04-18T14:51:24.162Z,17.13
2023-04-18T14:53:51.364Z,17.11
2023-04-18T14:56:21.222Z,17.13
2023-04-18T14:58:48.533Z,17.14
2023-04-18T15:01:17.571Z,17.14
2023-04-18T15:03:45.574Z,17.15
2023-04-18T15:06:12.965Z,17.13
2023-04-18T15:08:39.927Z,17.03
2023-04-18T15:11:08.268Z,16.95
2023-04-18T15:13:35.293Z,16.94
2023-04-18T15:16:02.644Z,16.92
2023-04-18T15:18:29.624Z,16.88
2023-04-18T15:20:59.284Z,16.85
2023-04-18T15:23:26.223Z,16.79
2023-04-18T15:25:53.392Z,16.71
2023-04-18T15:28:20.334Z,16.66
2023-04-18T15:30:47.564Z,16.58
2023-04-18T15:33:15.692Z,16.58
2023-04-18T15:35:42.894Z,16.50
2023-04-18T15:38:09.759Z,16.47
2023-04-18T15:40:37.079Z,16.46
2023-04-18T15:43:04.299Z,16.42
2023-04-18T15:45:31.892Z,16.34
2023-04-18T15:47:58.868Z,16.26
2023-04-18T15:50:26.189Z,16.20
2023-04-18T15:52:53.225Z,16.11
2023-04-18T15:55:20.379Z,15.99
2023-04-18T15:57:47.269Z,15.87
2023-04-18T16:00:17.792Z,15.79
2023-04-18T16:02:45.451Z,15.74
2023-04-18T16:05:13.894Z,15.70
2023-04-18T16:07:42.427Z,15.64
2023-04-18T16:10:10.842Z,15.55
2023-04-18T16:12:39.116Z,15.51
2023-04-18T16:15:08.726Z,15.47
2023-04-18T16:17:36.065Z,15.33
2023-04-18T16:20:03.828Z,15.30
2023-04-18T16:22:30.792Z,15.25
2023-04-18T16:24:57.915Z,15.18
2023-04-18T16:27:24.877Z,15.12
2023-04-18T16:29:53.773Z,15.05
2023-04-18T16:32:21.248Z,14.97
2023-04-18T16:34:48.593Z,14.90
2023-04-18T16:37:15.755Z,14.85
2023-04-18T16:39:42.996Z,14.76
2023-04-18T16:42:10.272Z,14.68
2023-04-18T16:44:39.376Z,14.61
2023-04-18T16:47:08.320Z,14.49
2023-04-18T16:49:35.767Z,14.33
2023-04-18T16:52:02.709Z,14.28
2023-04-18T16:54:30.042Z,14.20
2023-04-18T16:56:57.144Z,14.11
2023-04-18T16:59:24.421Z,14.04
2023-04-18T17:01:51.331Z,13.93
2023-04-18T17:04:18.611Z,13.82
2023-04-18T17:06:45.592Z,13.69
2023-04-18T17:09:14.623Z,13.59
2023-04-18T17:11:42.002Z,13.48
2023-04-18T17:14:09.424Z,13.39
2023-04-18T17:16:40.888Z,13.27
2023-04-18T17:19:09.137Z,13.19
2023-04-18T17:21:37.090Z,13.10
2023-04-18T17:24:06.788Z,13.01
2023-04-18T17:26:35.378Z,12.94
2023-04-18T17:29:04.391Z,12.85
2023-04-18T17:31:32.230Z,12.79
2023-04-18T17:34:00.151Z,12.73
2023-04-18T17:36:27.314Z,12.67
2023-04-18T17:38:54.586Z,12.60
2023-04-18T17:41:22.008Z,12.54
2023-04-18T17:43:51.075Z,12.50
2023-04-18T17:46:18.336Z,12.44
2023-04-18T17:48:45.629Z,12.40
2023-04-18T17:51:12.604Z,12.34
2023-04-18T17:53:39.726Z,12.28
2023-04-18T17:56:06.624Z,12.24
2023-04-18T17:58:33.841Z,12.19
2023-04-18T18:01:00.772Z,12.13
2023-04-18T18:03:28.277Z,12.05
2023-04-18T18:05:55.323Z,11.99
2023-04-18T18:08:22.783Z,11.92
2023-04-18T18:10:50.022Z,11.85
2023-04-18T18:13:17.309Z,11.77
2023-04-18T18:15:44.209Z,11.69
2023-04-18T18:18:11.556Z,11.61
2023-04-18T18:20:42.081Z,11.51
2023-04-18T18:23:09.260Z,11.42
2023-04-18T18:25:37.844Z,11.32
2023-04-18T18:28:05.201Z,11.20
2023-04-18T18:30:32.045Z,11.10
2023-04-18T18:33:00.766Z,11.00
2023-04-18T18:35:27.754Z,10.91
2023-04-18T18:37:54.940Z,10.83
2023-04-18T18:40:22.094Z,10.74
2023-04-18T18:42:54.700Z,10.64
2023-04-18T18:45:21.761Z,10.54
2023-04-18T18:47:49.048Z,10.43
2023-04-18T18:50:15.995Z,10.33
2023-04-18T18:52:43.352Z,10.25
2023-04-18T18:55:11.322Z,10.16
2023-04-18T18:57:38.487Z,10.08
2023-04-18T19:00:10.874Z,10.02
2023-04-18T19:02:38.932Z,9.90
2023-04-18T19:05:06.916Z,9.83
2023-04-18T19:07:34.180Z,9.74
2023-04-18T19:10:01.848Z,9.65
2023-04-18T19:12:29.374Z,9.61
2023-04-18T19:14:56.325Z,9.60
2023-04-18T19:17:24.920Z,9.56
2023-04-18T19:19:52.964Z,9.54
2023-04-18T19:22:20.132Z,9.51
2023-04-18T19:24:47.020Z,9.49
2023-04-18T19:27:14.158Z,9.48
2023-04-18T19:29:41.097Z,9.48
2023-04-18T19:32:08.279Z,9.47
2023-04-18T19:34:35.464Z,9.47
2023-04-18T19:37:02.622Z,9.44
2023-04-18T19:39:29.812Z,9.43
2023-04-18T19:41:57.074Z,9.43
2023-04-18T19:44:23.941Z,9.40
2023-04-18T19:46:51.151Z,9.36
2023-04-18T19:49:17.955Z,9.32
2023-04-18T19:51:45.340Z,9.27
2023-04-18T19:54:12.261Z,9.18
2023-04-18T19:56:39.384Z,9.08
2023-04-18T19:59:06.273Z,8.99
2023-04-18T20:01:33.424Z,8.89
2023-04-18T20:04:01.030Z,8.79
2023-04-18T20:06:28.728Z,8.69
2023-04-18T20:08:55.789Z,8.60
2023-04-18T20:11:22.946Z,8.54
2023-04-18T20:13:52.304Z,8.44
2023-04-18T20:16:19.443Z,8.37
2023-04-18T20:18:47.516Z,8.31
2023-04-18T20:21:15.408Z,8.25
2023-04-18T20:23:42.854Z,8.21
2023-04-18T20:26:10.018Z,8.21
2023-04-18T20:28:37.989Z,8.19
2023-04-18T20:31:05.430Z,8.19
2023-04-18T20:33:32.982Z,8.19
2023-04-18T20:36:00.346Z,8.22
2023-04-18T20:38:29.716Z,8.18
2023-04-18T20:40:58.917Z,8.09
2023-04-18T20:43:26.178Z,7.98
2023-04-18T20:45:54.577Z,7.87
2023-04-18T20:48:21.557Z,7.78
2023-04-18T20:50:52.053Z,7.70
2023-04-18T20:53:27.197Z,7.67
2023-04-18T20:55:54.482Z,7.66
2023-04-18T20:58:21.357Z,7.64
2023-04-18T21:00:49.007Z,7.62
2023-04-18T21:03:16.624Z,7.62
2023-04-18T21:05:45.184Z,7.60
2023-04-18T21:08:12.206Z,7.61
2023-04-18T21:10:39.911Z,7.61
2023-04-18T21:13:06.976Z,7.64
2023-04-18T21:15:35.899Z,7.66
2023-04-18T21:18:03.034Z,7.67
2023-04-18T21:20:30.295Z,7.72
2023-04-18T21:22:57.114Z,7.74
2023-04-18T21:25:24.192Z,7.75
2023-04-18T21:27:51.030Z,7.77
2023-04-18T21:30:18.429Z,7.78
2023-04-18T21:32:47.217Z,7.79
2023-04-18T21:35:15.313Z,7.76
2023-04-18T21:37:43.404Z,7.82
2023-04-18T21:40:10.975Z,7.86
2023-04-18T21:42:37.905Z,7.94
2023-04-18T21:45:06.273Z,7.97
2023-04-18T21:47:33.272Z,8.01
2023-04-18T21:50:00.567Z,8.05
2023-04-18T21:52:27.426Z,8.10
2023-04-18T21:54:54.605Z,8.15
2023-04-18T21:57:21.707Z,8.22
2023-04-18T21:59:48.796Z,8.27
2023-04-18T22:02:16.049Z,8.31
2023-04-18T22:04:44.240Z,8.33
2023-04-18T22:07:12.465Z,8.34
2023-04-18T22:09:39.855Z,8.31
2023-04-18T22:12:07.016Z,8.29
2023-04-18T22:14:34.306Z,8.26
2023-04-18T22:17:03.354Z,8.25
2023-04-18T22:19:31.443Z,8.14
2023-04-18T22:21:58.866Z,8.12
2023-04-18T22:24:26.105Z,8.09
2023-04-18T22:26:53.801Z,8.10
2023-04-18T22:29:20.963Z,8.10
2023-04-18T22:31:47.811Z,8.07
2023-04-18T22:34:15.207Z,8.04
2023-04-18T22:36:43.578Z,7.98
2023-04-18T22:39:12.148Z,7.93
2023-04-18T22:41:39.066Z,7.83
2023-04-18T22:44:07.302Z,7.76
2023-04-18T22:46:34.208Z,7.70
2023-04-18T22:49:01.460Z,7.67
2023-04-18T22:51:28.955Z,7.62
2023-04-18T22:53:56.637Z,7.56
2023-04-18T22:56:23.561Z,7.48
2023-04-18T22:58:51.025Z,7.40
2023-04-18T23:01:18.100Z,7.34
2023-04-18T23:03:45.593Z,7.27
2023-04-18T23:06:12.558Z,7.24
2023-04-18T23:08:39.757Z,7.19
2023-04-18T23:11:06.596Z,7.15
2023-04-18T23:13:33.751Z,7.12
2023-04-18T23:16:00.706Z,7.08
2023-04-18T23:18:31.039Z,7.04
2023-04-18T23:20:59.856Z,7.02
2023-04-18T23:23:27.034Z,7.03
2023-04-18T23:25:53.904Z,7.02
2023-04-18T23:28:21.278Z,7.02
2023-04-18T23:30:50.182Z,7.02
2023-04-18T23:33:17.344Z,6.98
2023-04-18T23:35:44.275Z,6.96
2023-04-18T23:38:11.444Z,6.94
2023-04-18T23:40:38.259Z,6.91
2023-04-18T23:43:05.392Z,6.87
2023-04-18T23:45:32.258Z,6.84
2023-04-18T23:47:59.487Z,6.85
2023-04-18T23:50:26.427Z,6.84
2023-04-18T23:52:53.576Z,6.83
2023-04-18T23:55:20.529Z,6.80
2023-04-18T23:57:47.679Z,6.80
